ADDS TAF Data INFO
IDs: Format: Raw Decoded Include METARs

Data at: 0832 UTC 18 Nov 2017

KPHX 180751Z 23003KT 10SM BKN250 18/06 A3000 RMK AO2 SLP146 T01780061

KPHX 180520Z 1806/1912 30005KT P6SM SCT150 BKN250
  FM180800 07004KT P6SM SCT250
  FM181100 23003KT P6SM FEW250
  FM181500 06011KT P6SM FEW250
  FM190000 30005KT P6SM SKC